Hanover, Arkansas
Current Conditions -  °F | °C
As of 7:55 PM on Monday 20 Oct 2014 (Local Time) from KBVX Reporting Station
Clear Clear  
Wind Chill: 63°   Ceiling: Unl
Heat Index: 63°   Visibility: 10mi
Dew Point: 55°   Wind: 5mph
Humidity: 77%   Direction: 240°WSW
Pressure: 30.02"   Gusts: NA
Location:  35.8647°N, 92.1166°W
Report Text: KBVX 210055Z AUTO 24004KT 10SM CLR 17/13 A3002 RMK AO1
Loading
Personal Weather Stations






























Interactive Weather Map
Tropical Storm Tracking
New forecast layout! Learn more

10-Day Weather Forecast

Advertisements
Track Severe Weather on mobile